createdAt,value
2018-08-24T00:00:52.944Z,0.00
2018-08-24T00:01:52.940Z,0.00
2018-08-24T00:02:52.943Z,0.00
2018-08-24T00:03:52.933Z,0.00
2018-08-24T00:04:52.935Z,0.00
2018-08-24T00:05:52.936Z,0.00
2018-08-24T00:06:56.678Z,0.00
2018-08-24T00:07:52.924Z,0.00
2018-08-24T00:08:52.936Z,0.00
2018-08-24T00:09:52.925Z,0.00
2018-08-24T00:10:52.919Z,0.00
2018-08-24T00:11:55.652Z,0.00
2018-08-24T00:12:55.655Z,0.00
2018-08-24T00:13:52.911Z,0.00
2018-08-24T00:14:52.907Z,0.00
2018-08-24T00:15:52.907Z,0.00
2018-08-24T00:16:52.906Z,0.00
2018-08-24T00:17:52.899Z,0.00
2018-08-24T00:18:52.893Z,0.00
2018-08-24T00:19:52.895Z,0.00
2018-08-24T00:20:52.884Z,0.00
2018-08-24T00:21:52.883Z,0.00
2018-08-24T00:22:52.883Z,0.00
2018-08-24T00:23:52.875Z,0.00
2018-08-24T00:24:52.878Z,0.00
2018-08-24T00:25:52.876Z,0.00
2018-08-24T00:26:52.873Z,0.00
2018-08-24T00:27:52.870Z,0.00
2018-08-24T00:28:52.864Z,0.00
2018-08-24T00:29:52.861Z,0.00
2018-08-24T00:30:52.861Z,0.00
2018-08-24T00:31:52.936Z,0.00
2018-08-24T00:32:52.852Z,0.00
2018-08-24T00:33:52.848Z,0.00
2018-08-24T00:34:52.854Z,0.00
2018-08-24T00:35:52.853Z,0.00
2018-08-24T00:36:52.844Z,0.00
2018-08-24T00:37:52.837Z,0.00
2018-08-24T00:38:52.834Z,0.00
2018-08-24T00:39:52.837Z,0.00
2018-08-24T00:40:52.837Z,0.00
2018-08-24T00:41:52.828Z,0.00
2018-08-24T00:42:52.824Z,0.00
2018-08-24T00:43:52.821Z,0.00
2018-08-24T00:44:52.818Z,0.00
2018-08-24T00:45:52.819Z,0.00
2018-08-24T00:46:52.812Z,0.00
2018-08-24T00:47:52.809Z,0.00
2018-08-24T00:48:52.818Z,0.00
2018-08-24T00:49:52.805Z,0.00
2018-08-24T00:50:52.801Z,0.00
2018-08-24T00:51:52.803Z,0.00
2018-08-24T00:52:52.799Z,0.00
2018-08-24T00:53:52.794Z,0.00
2018-08-24T00:54:54.229Z,0.00
2018-08-24T00:55:52.792Z,0.00
2018-08-24T00:56:52.784Z,0.00
2018-08-24T00:57:52.794Z,0.00
2018-08-24T00:58:52.781Z,0.00
2018-08-24T00:59:52.789Z,0.00
2018-08-24T01:00:52.774Z,0.00
2018-08-24T01:01:52.775Z,0.00
2018-08-24T01:02:52.767Z,0.00
2018-08-24T01:03:52.762Z,0.00
2018-08-24T01:04:52.764Z,0.00
2018-08-24T01:05:52.764Z,0.00
2018-08-24T01:06:52.761Z,0.00
2018-08-24T01:07:52.772Z,0.00
2018-08-24T01:08:52.752Z,0.00
2018-08-24T01:09:52.751Z,0.00
2018-08-24T01:10:52.750Z,0.00
2018-08-24T01:11:52.747Z,0.00
2018-08-24T01:12:52.743Z,0.00
2018-08-24T01:13:52.735Z,0.00
2018-08-24T01:14:52.734Z,0.00
2018-08-24T01:15:52.729Z,0.00
2018-08-24T01:16:52.727Z,0.00
2018-08-24T01:17:52.744Z,0.00
2018-08-24T01:18:52.724Z,0.00
2018-08-24T01:19:52.724Z,0.00
2018-08-24T01:20:52.721Z,0.00
2018-08-24T01:21:52.716Z,0.00
2018-08-24T01:22:52.716Z,0.00
2018-08-24T01:23:52.710Z,0.00
2018-08-24T01:24:52.709Z,0.00
2018-08-24T01:25:52.702Z,0.00
2018-08-24T01:26:52.698Z,0.00
2018-08-24T01:27:52.694Z,0.00
2018-08-24T01:28:52.702Z,0.00
2018-08-24T01:29:52.692Z,0.00
2018-08-24T01:30:52.686Z,0.00
2018-08-24T01:31:52.690Z,0.00
2018-08-24T01:32:52.686Z,0.00
2018-08-24T01:33:52.688Z,0.00
2018-08-24T01:34:52.675Z,0.00
2018-08-24T01:35:52.675Z,0.00
2018-08-24T01:36:52.689Z,0.00
2018-08-24T01:37:52.668Z,0.00
2018-08-24T01:38:52.676Z,0.00
2018-08-24T01:39:52.660Z,0.00
2018-08-24T01:40:52.664Z,0.00
2018-08-24T01:41:52.661Z,0.00
2018-08-24T01:42:52.652Z,0.00
2018-08-24T01:43:52.654Z,0.00
2018-08-24T01:44:52.650Z,0.00
2018-08-24T01:45:52.642Z,0.00
2018-08-24T01:46:52.639Z,0.00
2018-08-24T01:47:52.649Z,0.00
2018-08-24T01:48:52.632Z,0.00
2018-08-24T01:49:52.634Z,0.00
2018-08-24T01:50:52.628Z,0.00
2018-08-24T01:51:52.626Z,0.00
2018-08-24T01:52:52.636Z,0.00
2018-08-24T01:53:52.624Z,0.00
2018-08-24T01:54:52.622Z,0.00
2018-08-24T01:55:52.619Z,0.00
2018-08-24T01:56:52.606Z,0.00
2018-08-24T01:57:52.608Z,0.00
2018-08-24T01:58:52.625Z,0.00
2018-08-24T01:59:52.607Z,0.00
2018-08-24T02:00:52.614Z,0.00
2018-08-24T02:01:52.594Z,0.00
2018-08-24T02:02:52.601Z,0.00
2018-08-24T02:03:52.591Z,0.00
2018-08-24T02:04:52.587Z,0.00
2018-08-24T02:05:52.593Z,0.00
2018-08-24T02:06:52.575Z,0.00
2018-08-24T02:07:52.577Z,0.00
2018-08-24T02:08:52.579Z,0.00
2018-08-24T02:09:52.570Z,0.00
2018-08-24T02:10:52.576Z,0.00
2018-08-24T02:11:52.570Z,0.00
2018-08-24T02:12:52.564Z,0.00
2018-08-24T02:13:52.573Z,0.00
2018-08-24T02:14:52.556Z,0.00
2018-08-24T02:15:52.551Z,0.00
2018-08-24T02:16:52.550Z,0.00
2018-08-24T02:17:52.543Z,0.00
2018-08-24T02:18:52.542Z,0.00
2018-08-24T02:19:52.540Z,0.00
2018-08-24T02:20:52.537Z,0.00
2018-08-24T02:21:52.537Z,0.00
2018-08-24T02:22:52.530Z,0.00
2018-08-24T02:23:52.531Z,0.00
2018-08-24T02:24:52.525Z,0.00
2018-08-24T02:25:52.519Z,0.00
2018-08-24T02:26:52.519Z,0.00
2018-08-24T02:27:52.510Z,0.00
2018-08-24T02:28:52.512Z,0.00
2018-08-24T02:29:52.509Z,0.00
2018-08-24T02:30:52.504Z,0.00
2018-08-24T02:31:52.502Z,0.00
2018-08-24T02:32:52.497Z,0.00
2018-08-24T02:33:52.494Z,0.00
2018-08-24T02:34:52.492Z,0.00
2018-08-24T02:35:52.487Z,0.00
2018-08-24T02:36:52.487Z,0.00
2018-08-24T02:37:52.481Z,0.00
2018-08-24T02:38:52.475Z,0.00
2018-08-24T02:39:52.475Z,0.00
2018-08-24T02:40:52.471Z,0.00
2018-08-24T02:41:52.466Z,0.00
2018-08-24T02:42:52.467Z,0.00
2018-08-24T02:43:52.462Z,0.00
2018-08-24T02:44:52.504Z,0.00
2018-08-24T02:45:52.453Z,0.00
2018-08-24T02:46:52.453Z,0.00
2018-08-24T02:47:52.442Z,0.00
2018-08-24T02:48:52.447Z,0.00
2018-08-24T02:49:52.438Z,0.00
2018-08-24T02:50:52.436Z,0.00
2018-08-24T02:51:52.436Z,0.00
2018-08-24T02:52:52.430Z,0.00
2018-08-24T02:53:52.429Z,0.00
2018-08-24T02:54:52.431Z,0.00
2018-08-24T02:55:52.421Z,0.00
2018-08-24T02:56:52.416Z,0.00
2018-08-24T02:57:52.413Z,0.00
2018-08-24T02:58:52.411Z,0.00
2018-08-24T02:59:52.407Z,0.00
2018-08-24T03:00:52.404Z,0.00
2018-08-24T03:01:52.410Z,0.00
2018-08-24T03:02:52.392Z,0.00
2018-08-24T03:03:52.395Z,0.00
2018-08-24T03:04:52.386Z,0.00
2018-08-24T03:05:52.384Z,0.00
2018-08-24T03:06:52.382Z,0.00
2018-08-24T03:07:52.391Z,0.00
2018-08-24T03:08:52.374Z,0.00
2018-08-24T03:09:52.373Z,0.00
2018-08-24T03:10:52.368Z,0.00
2018-08-24T03:11:52.366Z,0.00
2018-08-24T03:12:52.363Z,0.00
2018-08-24T03:13:52.357Z,0.00
2018-08-24T03:14:52.354Z,0.00
2018-08-24T03:15:52.351Z,0.00
2018-08-24T03:16:52.346Z,0.00
2018-08-24T03:17:52.343Z,0.00
2018-08-24T03:18:52.337Z,0.00
2018-08-24T03:19:52.339Z,0.00
2018-08-24T03:20:52.329Z,0.00
2018-08-24T03:21:52.327Z,0.00
2018-08-24T03:22:52.323Z,0.00
2018-08-24T03:23:52.319Z,0.00
2018-08-24T03:24:52.317Z,0.00
2018-08-24T03:25:52.311Z,0.00
2018-08-24T03:26:52.315Z,0.00
2018-08-24T03:27:52.307Z,0.00
2018-08-24T03:28:52.302Z,0.00
2018-08-24T03:29:52.302Z,0.00
2018-08-24T03:30:52.297Z,0.00
2018-08-24T03:31:52.299Z,0.00
2018-08-24T03:32:52.289Z,0.00
2018-08-24T03:33:52.283Z,0.00
2018-08-24T03:34:52.284Z,0.00
2018-08-24T03:35:52.278Z,0.00
2018-08-24T03:36:52.273Z,0.00
2018-08-24T03:37:52.266Z,0.00
2018-08-24T03:38:52.267Z,0.00
2018-08-24T03:39:52.264Z,0.00
2018-08-24T03:40:52.261Z,0.00
2018-08-24T03:41:52.254Z,0.00
2018-08-24T03:42:52.251Z,0.00
2018-08-24T03:43:52.250Z,0.00
2018-08-24T03:44:52.247Z,0.00
2018-08-24T03:45:52.253Z,0.00
2018-08-24T03:46:52.264Z,0.00
2018-08-24T03:47:52.236Z,0.00
2018-08-24T03:48:52.256Z,0.00
2018-08-24T03:49:52.224Z,0.00
2018-08-24T03:50:52.227Z,0.00
2018-08-24T03:51:52.219Z,0.00
2018-08-24T03:52:52.244Z,0.00
2018-08-24T03:53:52.212Z,0.00
2018-08-24T03:54:52.209Z,0.00
2018-08-24T03:55:52.205Z,0.00
2018-08-24T03:56:52.203Z,0.00
2018-08-24T03:57:52.197Z,0.00
2018-08-24T03:58:52.193Z,0.00
2018-08-24T03:59:52.192Z,0.00
2018-08-24T04:00:52.189Z,0.00
2018-08-24T04:01:52.185Z,4.00
2018-08-24T04:02:52.180Z,4.00
2018-08-24T04:03:52.179Z,4.00
2018-08-24T04:04:52.177Z,4.00
2018-08-24T04:05:52.168Z,8.00
2018-08-24T04:06:52.165Z,8.00
2018-08-24T04:07:52.162Z,12.00
2018-08-24T04:08:52.161Z,12.00
2018-08-24T04:09:52.159Z,12.00
2018-08-24T04:10:52.159Z,16.00
2018-08-24T04:11:52.143Z,12.00
2018-08-24T04:12:52.185Z,12.00
2018-08-24T04:13:52.138Z,12.00
2018-08-24T04:14:52.132Z,20.00
2018-08-24T04:15:52.131Z,28.00
2018-08-24T04:16:52.130Z,32.00
2018-08-24T04:17:52.122Z,36.00
2018-08-24T04:18:52.122Z,36.00
2018-08-24T04:19:52.114Z,36.00
2018-08-24T04:20:52.118Z,32.00
2018-08-24T04:21:52.108Z,28.00
2018-08-24T04:22:52.112Z,32.00
2018-08-24T04:23:52.104Z,36.00
2018-08-24T04:24:52.103Z,56.00
2018-08-24T04:25:52.096Z,56.00
2018-08-24T04:26:52.144Z,40.00
2018-08-24T04:27:52.089Z,52.00
2018-08-24T04:28:52.080Z,92.00
2018-08-24T04:29:52.080Z,108.00
2018-08-24T04:30:52.078Z,140.00
2018-08-24T04:31:52.075Z,172.00
2018-08-24T04:32:52.121Z,216.00
2018-08-24T04:33:52.063Z,256.00
2018-08-24T04:34:52.095Z,288.00
2018-08-24T04:35:52.055Z,308.00
2018-08-24T04:36:52.057Z,344.00
2018-08-24T04:37:52.047Z,384.00
2018-08-24T04:38:52.051Z,432.00
2018-08-24T04:39:52.045Z,468.00
2018-08-24T04:40:52.040Z,504.00
2018-08-24T04:41:52.039Z,536.00
2018-08-24T04:42:52.030Z,560.00
2018-08-24T04:43:52.031Z,584.00
2018-08-24T04:44:52.023Z,608.00
2018-08-24T04:45:52.020Z,628.00
2018-08-24T04:46:52.021Z,640.00
2018-08-24T04:47:52.012Z,660.00
2018-08-24T04:48:52.013Z,672.00
2018-08-24T04:49:52.012Z,676.00
2018-08-24T04:50:52.005Z,680.00
2018-08-24T04:51:52.000Z,684.00
2018-08-24T04:52:52.008Z,688.00
2018-08-24T04:53:51.992Z,696.00
2018-08-24T04:54:51.988Z,712.00
2018-08-24T04:55:51.981Z,716.00
2018-08-24T04:56:51.984Z,688.00
2018-08-24T04:57:51.977Z,692.00
2018-08-24T04:58:51.979Z,752.00
2018-08-24T04:59:51.976Z,784.00
2018-08-24T05:00:51.963Z,804.00
2018-08-24T05:01:51.962Z,808.00
2018-08-24T05:02:51.959Z,832.00
2018-08-24T05:03:51.955Z,856.00
2018-08-24T05:04:51.955Z,900.00
2018-08-24T05:05:52.012Z,940.00
2018-08-24T05:06:51.944Z,988.00
2018-08-24T05:07:51.940Z,1048.00
2018-08-24T05:08:51.942Z,1100.00
2018-08-24T05:09:51.935Z,1132.00
2018-08-24T05:10:51.930Z,1136.00
2018-08-24T05:11:51.924Z,1168.00
2018-08-24T05:12:51.921Z,1212.00
2018-08-24T05:13:51.920Z,1232.00
2018-08-24T05:14:51.911Z,1260.00
2018-08-24T05:15:51.907Z,1316.00
2018-08-24T05:16:51.905Z,1376.00
2018-08-24T05:17:51.901Z,1408.00
2018-08-24T05:18:51.899Z,1436.00
2018-08-24T05:19:51.913Z,1460.00
2018-08-24T05:20:51.893Z,1480.00
2018-08-24T05:21:51.893Z,1484.00
2018-08-24T05:22:51.886Z,1476.00
2018-08-24T05:23:51.885Z,1460.00
2018-08-24T05:24:51.998Z,1452.00
2018-08-24T05:25:51.874Z,1448.00
2018-08-24T05:26:51.869Z,1456.00
2018-08-24T05:27:51.865Z,1488.00
2018-08-24T05:28:51.864Z,1536.00
2018-08-24T05:29:51.880Z,1620.00
2018-08-24T05:30:51.858Z,1716.00
2018-08-24T05:31:51.864Z,1808.00
2018-08-24T05:32:51.856Z,1904.00
2018-08-24T05:33:51.842Z,1972.00
2018-08-24T05:34:51.838Z,2008.00
2018-08-24T05:35:51.841Z,2040.00
2018-08-24T05:36:51.831Z,2068.00
2018-08-24T05:37:51.826Z,2096.00
2018-08-24T05:38:51.834Z,2136.00
2018-08-24T05:39:51.820Z,2152.00
2018-08-24T05:40:51.820Z,2196.00
2018-08-24T05:41:51.818Z,2260.00
2018-08-24T05:42:51.812Z,2328.00
2018-08-24T05:43:51.809Z,2388.00
2018-08-24T05:44:51.805Z,2424.00
2018-08-24T05:45:51.798Z,2424.00
2018-08-24T05:46:51.799Z,2420.00
2018-08-24T05:47:51.789Z,2444.00
2018-08-24T05:48:51.884Z,2504.00
2018-08-24T05:49:51.786Z,2560.00
2018-08-24T05:50:51.783Z,2600.00
2018-08-24T05:51:51.778Z,2624.00
2018-08-24T05:52:51.776Z,2620.00
2018-08-24T05:53:51.770Z,2588.00
2018-08-24T05:54:51.765Z,2528.00
2018-08-24T05:55:51.764Z,2472.00
2018-08-24T05:56:51.759Z,2444.00
2018-08-24T05:57:51.759Z,2452.00
2018-08-24T05:58:51.760Z,2508.00
2018-08-24T05:59:51.751Z,2600.00
2018-08-24T06:00:51.756Z,2660.00
2018-08-24T06:01:51.740Z,2700.00
2018-08-24T06:02:51.739Z,2736.00
2018-08-24T06:03:51.734Z,2776.00
2018-08-24T06:04:51.732Z,2876.00
2018-08-24T06:05:51.816Z,3076.00
2018-08-24T06:06:51.728Z,3404.00
2018-08-24T06:07:51.722Z,3784.00
2018-08-24T06:08:51.726Z,4132.00
2018-08-24T06:09:51.717Z,4360.00
2018-08-24T06:10:51.723Z,4532.00
2018-08-24T06:11:51.710Z,4680.00
2018-08-24T06:12:51.709Z,4808.00
2018-08-24T06:13:51.701Z,4676.00
2018-08-24T06:14:51.691Z,4032.00
2018-08-24T06:15:51.747Z,3480.00
2018-08-24T06:16:51.793Z,3088.00
2018-08-24T06:17:51.684Z,2736.00
2018-08-24T06:18:51.679Z,2568.00
2018-08-24T06:19:51.683Z,1992.00
2018-08-24T06:20:51.682Z,1840.00
2018-08-24T06:21:51.723Z,1512.00
2018-08-24T06:22:51.665Z,1240.00
2018-08-24T06:23:51.660Z,968.00
2018-08-24T06:24:51.655Z,952.00
2018-08-24T06:25:51.657Z,908.00
2018-08-24T06:26:51.649Z,932.00
2018-08-24T06:27:51.645Z,884.00
2018-08-24T06:28:51.644Z,1004.00
2018-08-24T06:29:51.639Z,1632.00
2018-08-24T06:30:51.641Z,1948.00
2018-08-24T06:31:51.633Z,2176.00
2018-08-24T06:32:51.696Z,3000.00
2018-08-24T06:33:51.627Z,3884.00
2018-08-24T06:34:51.618Z,2980.00
2018-08-24T06:35:51.617Z,2476.00
2018-08-24T06:36:51.634Z,1892.00
2018-08-24T06:37:51.618Z,2152.00
2018-08-24T06:38:51.608Z,1996.00
2018-08-24T06:39:51.637Z,2208.00
2018-08-24T06:40:51.612Z,3284.00
2018-08-24T06:41:51.640Z,3348.00
2018-08-24T06:42:51.596Z,3384.00
2018-08-24T06:43:51.593Z,3336.00
2018-08-24T06:44:51.583Z,3400.00
2018-08-24T06:45:51.584Z,3144.00
2018-08-24T06:46:51.594Z,3040.00
2018-08-24T06:47:51.585Z,3224.00
2018-08-24T06:48:51.576Z,3572.00
2018-08-24T06:49:51.574Z,3400.00
2018-08-24T06:50:51.565Z,4704.00
2018-08-24T06:51:51.560Z,4084.00
2018-08-24T06:52:51.571Z,4632.00
2018-08-24T06:53:51.639Z,6092.00
2018-08-24T06:54:51.548Z,6184.00
2018-08-24T06:55:51.546Z,6084.00
2018-08-24T06:56:51.543Z,4600.00
2018-08-24T06:57:51.546Z,3520.00
2018-08-24T06:58:51.533Z,3712.00
2018-08-24T06:59:51.531Z,3580.00
2018-08-24T07:00:51.527Z,3024.00
2018-08-24T07:01:51.529Z,2700.00
2018-08-24T07:02:51.519Z,2180.00
2018-08-24T07:03:51.513Z,2324.00
2018-08-24T07:04:51.515Z,3340.00
2018-08-24T07:05:51.526Z,4012.00
2018-08-24T07:06:51.509Z,2580.00
2018-08-24T07:07:51.505Z,1988.00
2018-08-24T07:08:51.500Z,1796.00
2018-08-24T07:09:51.492Z,1708.00
2018-08-24T07:10:51.495Z,2136.00
2018-08-24T07:11:51.489Z,3148.00
2018-08-24T07:12:51.540Z,2788.00
2018-08-24T07:13:51.482Z,2248.00
2018-08-24T07:14:51.477Z,2736.00
2018-08-24T07:15:51.474Z,2840.00
2018-08-24T07:16:51.471Z,2268.00
2018-08-24T07:17:51.466Z,2488.00
2018-08-24T07:18:51.469Z,3872.00
2018-08-24T07:19:51.457Z,3896.00
2018-08-24T07:20:51.459Z,4344.00
2018-08-24T07:21:51.474Z,4620.00
2018-08-24T07:22:51.451Z,3968.00
2018-08-24T07:23:51.444Z,5172.00
2018-08-24T07:24:51.443Z,5412.00
2018-08-24T07:25:51.438Z,5100.00
2018-08-24T07:26:51.437Z,4076.00
2018-08-24T07:27:51.446Z,6008.00
2018-08-24T07:28:51.428Z,7088.00
2018-08-24T07:29:51.424Z,5036.00
2018-08-24T07:30:51.426Z,6580.00
2018-08-24T07:31:51.421Z,6520.00
2018-08-24T07:32:51.419Z,5620.00
2018-08-24T07:33:51.436Z,4180.00
2018-08-24T07:34:51.408Z,4460.00
2018-08-24T07:35:51.407Z,6232.00
2018-08-24T07:36:51.402Z,5412.00
2018-08-24T07:37:51.402Z,5360.00
2018-08-24T07:38:51.394Z,4868.00
2018-08-24T07:39:51.395Z,6168.00
2018-08-24T07:40:51.390Z,6236.00
2018-08-24T07:41:51.426Z,4976.00
2018-08-24T07:42:51.382Z,4436.00
2018-08-24T07:43:51.379Z,4004.00
2018-08-24T07:44:51.389Z,4348.00
2018-08-24T07:45:51.372Z,4792.00
2018-08-24T07:46:51.377Z,4100.00
2018-08-24T07:47:51.364Z,5068.00
2018-08-24T07:48:51.363Z,5232.00
2018-08-24T07:49:51.361Z,4864.00
2018-08-24T07:50:51.430Z,4648.00
2018-08-24T07:51:51.353Z,3872.00
2018-08-24T07:52:51.347Z,4900.00
2018-08-24T07:53:51.348Z,4636.00
2018-08-24T07:54:51.339Z,4964.00
2018-08-24T07:55:51.340Z,4624.00
2018-08-24T07:56:51.334Z,5600.00
2018-08-24T07:57:51.346Z,5784.00
2018-08-24T07:58:51.327Z,5544.00
2018-08-24T07:59:51.330Z,6812.00
2018-08-24T08:00:51.324Z,6852.00
2018-08-24T08:01:51.319Z,5396.00
2018-08-24T08:02:51.318Z,5112.00
2018-08-24T08:03:51.314Z,4508.00
2018-08-24T08:04:51.310Z,4324.00
2018-08-24T08:05:51.306Z,4100.00
2018-08-24T08:06:51.308Z,4004.00
2018-08-24T08:07:51.305Z,4012.00
2018-08-24T08:08:51.299Z,4400.00
2018-08-24T08:09:51.292Z,4688.00
2018-08-24T08:10:51.294Z,5308.00
2018-08-24T08:11:51.285Z,5708.00
2018-08-24T08:12:51.284Z,6064.00
2018-08-24T08:13:51.278Z,6524.00
2018-08-24T08:14:51.276Z,6932.00
2018-08-24T08:15:51.274Z,7184.00
2018-08-24T08:16:51.278Z,7184.00
2018-08-24T08:17:51.265Z,7072.00
2018-08-24T08:18:51.266Z,6964.00
2018-08-24T08:19:51.266Z,6880.00
2018-08-24T08:20:51.260Z,6156.00
2018-08-24T08:21:51.255Z,5584.00
2018-08-24T08:22:51.247Z,5748.00
2018-08-24T08:23:51.242Z,5660.00
2018-08-24T08:24:51.328Z,5456.00
2018-08-24T08:25:51.239Z,5896.00
2018-08-24T08:26:51.237Z,6396.00
2018-08-24T08:27:51.230Z,4996.00
2018-08-24T08:28:51.237Z,3952.00
2018-08-24T08:29:51.233Z,5000.00
2018-08-24T08:30:51.227Z,5704.00
2018-08-24T08:31:51.221Z,4336.00
2018-08-24T08:32:51.219Z,5820.00
2018-08-24T08:33:51.219Z,8240.00
2018-08-24T08:34:51.211Z,8164.00
2018-08-24T08:35:51.209Z,8700.00
2018-08-24T08:36:51.212Z,9136.00
2018-08-24T08:37:51.200Z,9012.00
2018-08-24T08:38:51.233Z,8548.00
2018-08-24T08:39:51.194Z,8056.00
2018-08-24T08:40:51.192Z,8160.00
2018-08-24T08:41:51.193Z,9136.00
2018-08-24T08:42:51.184Z,12364.00
2018-08-24T08:43:51.185Z,22272.00
2018-08-24T08:44:51.175Z,19136.00
2018-08-24T08:45:51.175Z,19456.00
2018-08-24T08:46:51.175Z,28768.00
2018-08-24T08:47:51.168Z,16072.00
2018-08-24T08:48:51.172Z,19040.00
2018-08-24T08:49:51.163Z,25600.00
2018-08-24T08:50:51.161Z,29088.00
2018-08-24T08:51:51.171Z,26528.00
2018-08-24T08:52:51.162Z,46624.00
2018-08-24T08:53:51.152Z,35296.00
2018-08-24T08:54:51.154Z,25280.00
2018-08-24T08:55:51.157Z,24128.00
2018-08-24T08:56:51.148Z,23392.00
2018-08-24T08:57:51.144Z,24032.00
2018-08-24T08:58:51.142Z,21024.00
2018-08-24T08:59:51.139Z,14256.00
2018-08-24T09:00:51.137Z,10480.00
2018-08-24T09:01:51.138Z,13916.00
2018-08-24T09:02:51.143Z,19392.00
2018-08-24T09:03:51.135Z,20352.00
2018-08-24T09:04:51.134Z,15368.00
2018-08-24T09:05:51.133Z,18368.00
2018-08-24T09:06:51.137Z,22880.00
2018-08-24T09:07:51.130Z,22400.00
2018-08-24T09:08:51.125Z,20448.00
2018-08-24T09:09:51.124Z,18240.00
2018-08-24T09:10:51.122Z,18368.00
2018-08-24T09:11:51.122Z,21984.00
2018-08-24T09:12:51.179Z,36512.00
2018-08-24T09:13:51.120Z,33376.00
2018-08-24T09:14:51.121Z,24512.00
2018-08-24T09:15:51.124Z,43616.00
2018-08-24T09:16:51.117Z,19232.00
2018-08-24T09:17:51.115Z,71168.00
2018-08-24T09:18:51.115Z,64064.00
2018-08-24T09:19:51.196Z,19456.00
2018-08-24T09:20:51.108Z,13740.00
2018-08-24T09:21:51.116Z,19488.00
2018-08-24T09:22:51.111Z,19712.00
2018-08-24T09:23:51.119Z,20928.00
2018-08-24T09:24:51.121Z,38432.00
2018-08-24T09:25:51.164Z,21312.00
2018-08-24T09:26:51.124Z,30048.00
2018-08-24T09:27:51.115Z,11640.00
2018-08-24T09:28:51.108Z,9396.00
2018-08-24T09:29:51.114Z,8644.00
2018-08-24T09:30:51.114Z,8440.00
2018-08-24T09:31:51.113Z,8956.00
2018-08-24T09:32:51.125Z,8928.00
2018-08-24T09:33:51.114Z,8912.00
2018-08-24T09:34:51.110Z,7624.00
2018-08-24T09:35:51.108Z,8336.00
2018-08-24T09:36:51.110Z,7212.00
2018-08-24T09:37:51.158Z,6312.00
2018-08-24T09:38:51.107Z,6452.00
2018-08-24T09:39:51.110Z,9004.00
2018-08-24T09:40:51.112Z,9864.00
2018-08-24T09:41:51.116Z,10400.00
2018-08-24T09:42:51.109Z,8692.00
2018-08-24T09:43:51.106Z,8672.00
2018-08-24T09:44:51.109Z,11532.00
2018-08-24T09:45:51.111Z,17472.00
2018-08-24T09:46:51.105Z,21920.00
2018-08-24T09:47:51.112Z,74208.00
2018-08-24T09:48:51.110Z,72832.00
2018-08-24T09:49:51.101Z,69536.00
2018-08-24T09:50:51.100Z,75168.00
2018-08-24T09:51:51.151Z,75584.00
2018-08-24T09:52:51.099Z,23328.00
2018-08-24T09:53:51.104Z,22656.00
2018-08-24T09:54:51.104Z,84128.00
2018-08-24T09:55:51.105Z,78400.00
2018-08-24T09:56:51.158Z,18592.00
2018-08-24T09:57:51.104Z,77216.00
2018-08-24T09:58:51.108Z,21728.00
2018-08-24T09:59:51.104Z,19488.00
2018-08-24T10:00:51.106Z,71488.00
2018-08-24T10:01:51.113Z,71424.00
2018-08-24T10:02:51.175Z,67680.00
2018-08-24T10:03:51.113Z,69376.00
2018-08-24T10:04:51.118Z,69984.00
2018-08-24T10:05:51.119Z,72000.00
2018-08-24T10:06:51.204Z,72128.00
2018-08-24T10:07:51.118Z,73824.00
2018-08-24T10:08:51.123Z,72352.00
2018-08-24T10:09:51.124Z,73632.00
2018-08-24T10:10:51.131Z,76512.00
2018-08-24T10:11:51.133Z,77696.00
2018-08-24T10:12:51.139Z,76736.00
2018-08-24T10:13:51.141Z,78112.00
2018-08-24T10:14:51.147Z,24672.00
2018-08-24T10:15:51.150Z,85824.00
2018-08-24T10:16:51.156Z,22464.00
2018-08-24T10:17:51.159Z,19296.00
2018-08-24T10:18:51.165Z,52032.00
2018-08-24T10:19:51.171Z,37824.00
2018-08-24T10:20:51.169Z,26560.00
2018-08-24T10:21:51.176Z,18400.00
2018-08-24T10:22:51.181Z,11260.00
2018-08-24T10:23:51.183Z,8416.00
2018-08-24T10:24:51.184Z,8748.00
2018-08-24T10:25:51.192Z,9280.00
2018-08-24T10:26:51.200Z,9620.00
2018-08-24T10:27:51.203Z,11520.00
2018-08-24T10:28:51.210Z,84448.00
2018-08-24T10:29:51.276Z,84800.00
2018-08-24T10:30:51.211Z,25248.00
2018-08-24T10:31:51.215Z,18752.00
2018-08-24T10:32:51.217Z,11584.00
2018-08-24T10:33:51.230Z,11536.00
2018-08-24T10:34:51.233Z,12932.00
2018-08-24T10:35:51.228Z,17268.00
2018-08-24T10:36:51.233Z,79680.00
2018-08-24T10:37:51.235Z,16496.00
2018-08-24T10:38:51.257Z,14548.00
2018-08-24T10:39:51.234Z,77472.00
2018-08-24T10:40:51.356Z,77088.00
2018-08-24T10:41:51.246Z,79200.00
2018-08-24T10:42:51.248Z,75296.00
2018-08-24T10:43:51.248Z,8644.00
2018-08-24T10:44:51.259Z,8132.00
2018-08-24T10:45:51.253Z,8732.00
2018-08-24T10:46:51.260Z,75488.00
2018-08-24T10:47:51.263Z,77696.00
2018-08-24T10:48:51.264Z,78976.00
2018-08-24T10:49:51.271Z,83104.00
2018-08-24T10:50:51.281Z,86016.00
2018-08-24T10:51:51.276Z,86272.00
2018-08-24T10:52:51.286Z,14620.00
2018-08-24T10:53:51.285Z,12340.00
2018-08-24T10:54:51.316Z,12488.00
2018-08-24T10:55:51.293Z,13580.00
2018-08-24T10:56:51.295Z,83136.00
2018-08-24T10:57:51.296Z,79072.00
2018-08-24T10:58:51.303Z,78592.00
2018-08-24T10:59:51.334Z,75264.00
2018-08-24T11:00:51.311Z,73632.00
2018-08-24T11:01:51.316Z,75008.00
2018-08-24T11:02:51.312Z,77216.00
2018-08-24T11:03:51.332Z,79040.00
2018-08-24T11:04:51.326Z,81408.00
2018-08-24T11:05:51.324Z,81408.00
2018-08-24T11:06:51.333Z,77728.00
2018-08-24T11:07:51.453Z,75392.00
2018-08-24T11:08:51.340Z,77632.00
2018-08-24T11:09:51.356Z,78400.00
2018-08-24T11:10:51.351Z,79040.00
2018-08-24T11:11:51.354Z,79232.00
2018-08-24T11:12:51.357Z,81152.00
2018-08-24T11:13:51.363Z,81824.00
2018-08-24T11:14:51.365Z,79456.00
2018-08-24T11:15:51.373Z,81120.00
2018-08-24T11:16:51.446Z,82528.00
2018-08-24T11:17:51.389Z,84928.00
2018-08-24T11:18:51.390Z,86880.00
2018-08-24T11:19:51.395Z,87904.00
2018-08-24T11:20:51.402Z,87424.00
2018-08-24T11:21:51.808Z,85568.00
2018-08-24T11:22:51.441Z,52512.00
2018-08-24T11:23:51.417Z,86464.00
2018-08-24T11:24:51.420Z,88128.00
2018-08-24T11:25:51.423Z,87584.00
2018-08-24T11:26:51.499Z,87040.00
2018-08-24T11:27:51.435Z,84608.00
2018-08-24T11:28:51.442Z,87712.00
2018-08-24T11:29:51.445Z,88480.00
2018-08-24T11:30:51.455Z,86112.00
2018-08-24T11:31:51.463Z,89472.00
2018-08-24T11:32:51.467Z,93536.00
2018-08-24T11:33:51.527Z,93344.00
2018-08-24T11:34:51.475Z,92832.00
2018-08-24T11:35:51.516Z,90624.00
2018-08-24T11:36:51.487Z,89760.00
2018-08-24T11:37:51.493Z,89056.00
2018-08-24T11:38:51.503Z,14244.00
2018-08-24T11:39:51.508Z,52960.00
2018-08-24T11:40:51.518Z,21472.00
2018-08-24T11:41:51.571Z,25568.00
2018-08-24T11:42:51.527Z,91328.00
2018-08-24T11:43:51.535Z,94496.00
2018-08-24T11:44:51.547Z,98464.00
2018-08-24T11:45:51.537Z,97824.00
2018-08-24T11:46:51.539Z,93952.00
2018-08-24T11:47:51.593Z,92128.00
2018-08-24T11:48:51.558Z,16176.00
2018-08-24T11:49:51.561Z,92704.00
2018-08-24T11:50:51.565Z,92128.00
2018-08-24T11:51:51.569Z,93248.00
2018-08-24T11:52:51.578Z,78912.00
2018-08-24T11:53:51.583Z,96864.00
2018-08-24T11:54:51.586Z,98496.00
2018-08-24T11:55:51.590Z,13956.00
2018-08-24T11:56:51.600Z,98400.00
2018-08-24T11:57:51.611Z,16292.00
2018-08-24T11:58:51.615Z,10352.00
2018-08-24T11:59:51.636Z,98976.00
2018-08-24T12:00:51.624Z,98432.00
2018-08-24T12:01:51.622Z,94304.00
2018-08-24T12:02:51.631Z,92192.00
2018-08-24T12:03:51.635Z,89472.00
2018-08-24T12:04:51.642Z,91968.00
2018-08-24T12:05:51.641Z,90240.00
2018-08-24T12:06:51.652Z,86496.00
2018-08-24T12:07:51.706Z,87456.00
2018-08-24T12:08:51.661Z,90176.00
2018-08-24T12:09:51.665Z,89088.00
2018-08-24T12:10:51.672Z,87648.00
2018-08-24T12:11:51.679Z,88128.00
2018-08-24T12:12:51.683Z,13344.00
2018-08-24T12:13:51.717Z,17228.00
2018-08-24T12:14:51.693Z,92352.00
2018-08-24T12:15:51.701Z,80736.00
2018-08-24T12:16:51.706Z,69888.00
2018-08-24T12:17:51.712Z,92640.00
2018-08-24T12:18:51.712Z,91392.00
2018-08-24T12:19:51.717Z,92960.00
2018-08-24T12:20:51.733Z,21152.00
2018-08-24T12:21:51.728Z,92416.00
2018-08-24T12:22:51.736Z,93888.00
2018-08-24T12:23:51.743Z,95360.00
2018-08-24T12:24:51.750Z,93760.00